Ether, North Carolina
Current Conditions -  °F | °C
As of 12:55 PM on Friday 21 Nov 2014 (Local Time) from KHBI Reporting Station
Clear Clear  
Wind Chill: 43°   Ceiling: Unl
Heat Index: 47°   Visibility: 10mi
Dew Point:   Wind: 10mph
Humidity: 21%   Direction: 340°NNW
Pressure: 30.43"   Gusts: NA
Location:  35.44°N, 79.78°W
Report Text: KHBI 211755Z AUTO 34009KT 10SM CLR 09/M13 A3043 RMK AO2 T00861128 10086 21023
Loading
Personal Weather Stations






























Interactive Weather Map New forecast layout! Learn more

10-Day Weather Forecast

Advertisements
Track Severe Weather on mobile